Data for 06/13/2010

Time Sea-Level Adjusted Pressure Absolute Pressure Temperature Relative Humidity Dew Point   
(mb) (inHg) (mb) (inHg) (C) (F) (%) (C) (F)
00:05 1026 30.3 855 25.25 7 44.6 79 3.6 38.5
00:10 1026 30.3 855 25.25 7 44.6 79 3.5 38.4
00:15 1026 30.3 855 25.25 7 44.5 78 3.3 38
00:20 1026 30.3 855 25.25 7.1 44.7 78 3.5 38.4
00:25 1026 30.3 855 25.25 7 44.6 78 3.4 38.2
00:30 1026 30.3 855 25.25 7 44.7 78 3.4 38.2
00:35 1026 30.3 855 25.25 7.1 44.8 78 3.5 38.3
00:40 1025 30.27 855 25.25 7.1 44.7 78 3.5 38.4
00:45 1026 30.3 855 25.25 7 44.6 79 3.5 38.3
00:50 1026 30.3 855 25.25 7 44.5 78 3.5 38.2
00:55 1026 30.3 855 25.25 6.9 44.4 79 3.5 38.4
01:00 1025 30.27 855 25.25 6.8 44.3 79 3.5 38.3
01:05 1025 30.27 855 25.25 6.7 44.1 80 3.5 38.4
01:10 1025 30.27 855 25.25 6.7 44.1 80 3.5 38.4
01:15 1025 30.27 854 25.22 6.7 44 81 3.6 38.4
01:20 1025 30.27 854 25.22 6.5 43.8 81 3.5 38.2
01:25 1025 30.27 854 25.22 6.6 43.8 81 3.5 38.3
01:30 1025 30.27 854 25.22 6.6 43.9 81 3.5 38.3
01:35 1025 30.27 854 25.22 6.6 43.9 80 3.5 38.3
01:40 1025 30.27 855 25.25 6.7 44 80 3.4 38.2
01:45 1025 30.27 855 25.25 6.7 44.1 79 3.4 38.1
01:50 1025 30.27 855 25.25 6.7 44.1 79 3.4 38.1
01:55 1025 30.27 854 25.22 6.8 44.3 78 3.4 38.1
02:00 1025 30.27 854 25.22 6.9 44.4 78 3.4 38.1
02:05 1025 30.27 854 25.22 6.9 44.4 78 3.4 38
02:10 1025 30.27 854 25.22 6.8 44.3 78 3.3 38
02:15 1025 30.27 854 25.22 6.8 44.2 78 3.3 37.9
02:20 1025 30.27 855 25.25 6.7 44 79 3.3 37.9
02:25 1025 30.27 854 25.22 6.7 44.1 78 3.2 37.8
02:30 1025 30.27 855 25.25 6.7 44.1 78 3.2 37.7
02:35 1025 30.27 855 25.25 6.8 44.2 78 3.3 37.9
02:40 1025 30.27 854 25.22 6.7 44.1 78 3.2 37.8
02:45 1025 30.27 854 25.22 6.7 44.1 78 3.3 37.9
02:50 1025 30.27 854 25.22 6.6 43.9 79 3.3 37.9
02:55 1025 30.27 854 25.22 6.6 43.8 79 3.2 37.8
03:00 1025 30.27 854 25.22 6.6 43.8 79 3.2 37.8
03:05 1025 30.27 854 25.22 6.6 43.8 80 3.3 37.9
03:10 1025 30.27 854 25.22 6.4 43.5 81 3.4 38
03:15 1025 30.27 854 25.22 6.1 43.1 82 3.3 38
03:20 1025 30.27 854 25.22 6 42.8 83 3.3 38
03:25 1025 30.27 854 25.22 5.9 42.6 83 3.2 37.8
03:30 1025 30.27 854 25.22 5.9 42.6 83 3.2 37.8
03:35 1025 30.27 854 25.22 6 42.8 82 3.2 37.7
03:40 1025 30.27 854 25.22 6.2 43.1 82 3.3 37.9
03:45 1025 30.27 854 25.22 6.3 43.4 81 3.3 38
03:50 1025 30.27 854 25.22 6.3 43.4 81 3.4 38
03:55 1025 30.27 854 25.22 6.3 43.4 82 3.4 38.1
04:00 1025 30.27 854 25.22 6.2 43.2 82 3.4 38.1
04:05 1025 30.27 854 25.22 6 42.7 83 3.4 38.1
04:10 1025 30.27 854 25.22 5.7 42.2 85 3.3 37.9
04:15 1025 30.27 854 25.22 5.5 42 85 3.2 37.7
04:20 1025 30.27 854 25.22 5.6 42 85 3.2 37.7
04:25 1025 30.27 854 25.22 5.7 42.2 84 3.2 37.7
04:30 1025 30.27 854 25.22 5.9 42.5 83 3.2 37.8
04:35 1025 30.27 854 25.22 6 42.9 83 3.3 37.9
04:40 1025 30.27 854 25.22 6.1 43 83 3.4 38
04:45 1025 30.27 854 25.22 5.9 42.6 83 3.3 37.9
04:50 1025 30.27 854 25.22 5.7 42.3 84 3.2 37.7
04:55 1025 30.27 854 25.22 5.6 42.1 84 3.1 37.6
05:00 1025 30.27 854 25.22 5.5 41.9 84 3.1 37.5
05:05 1025 30.27 854 25.22 5.4 41.8 85 3.1 37.6
05:10 1025 30.27 854 25.22 5.3 41.6 85 3.1 37.5
05:15 1025 30.27 854 25.22 5.3 41.5 86 3.1 37.6
05:20 1025 30.27 854 25.22 5.1 41.2 86 3 37.4
05:25 1025 30.27 854 25.22 5.1 41.1 85 2.7 36.9
05:30 1025 30.27 854 25.22 5.2 41.4 84 2.8 37
05:35 1025 30.27 854 25.22 5.3 41.6 83 2.7 36.9
05:40 1025 30.27 854 25.22 5.4 41.6 83 2.6 36.7
05:45 1025 30.27 854 25.22 5.3 41.6 82 2.5 36.4
05:50 1025 30.27 854 25.22 5.4 41.7 81 2.4 36.4
05:55 1025 30.27 854 25.22 5.3 41.5 83 2.6 36.6
06:00 1025 30.27 854 25.22 5.1 41.3 83 2.5 36.6
06:05 1025 30.27 854 25.22 5.3 41.6 83 2.6 36.7
06:10 1025 30.27 854 25.22 5.6 42 82 2.7 36.8
06:15 1025 30.27 854 25.22 6 42.8 80 2.7 36.9
06:20 1025 30.27 854 25.22 6.4 43.5 78 2.9 37.2
06:25 1025 30.27 854 25.22 6.5 43.8 78 3 37.4
06:30 1025 30.27 854 25.22 6.6 43.8 78 3 37.4
06:35 1025 30.27 854 25.22 6.6 43.9 77 3 37.3
06:40 1025 30.27 854 25.22 6.7 44.1 78 3.2 37.7
06:45 1025 30.27 854 25.22 6.8 44.2 77 3 37.5
06:50 1025 30.27 854 25.22 6.9 44.4 77 3.1 37.5
06:55 1025 30.27 854 25.22 6.7 44 79 3.2 37.8
07:00 1025 30.27 854 25.22 6.5 43.8 79 3.2 37.7
07:05 1025 30.27 854 25.22 6.7 44 78 3.2 37.7
07:10 1025 30.27 854 25.22 7.1 44.8 76 3.1 37.7
07:15 1024 30.24 854 25.22 7.4 45.2 75 3.2 37.8
07:20 1024 30.24 854 25.22 7.8 46 73 3.3 38
07:25 1025 30.27 854 25.22 8.2 46.8 72 3.4 38.2
07:30 1025 30.27 854 25.22 8.5 47.3 70 3.3 37.9
07:35 1025 30.27 854 25.22 8.9 48 67 3.1 37.5
07:40 1025 30.27 854 25.22 8.9 48 65 2.8 37.1
07:45 1025 30.27 854 25.22 8.5 47.4 69 3.3 37.9
07:50 1025 30.27 854 25.22 9 48.1 66 3 37.4
07:55 1025 30.27 854 25.22 9.1 48.5 66 3.2 37.8
08:00 1025 30.27 854 25.22 9.6 49.3 63 3 37.4
08:05 1025 30.27 854 25.22 10 50 63 3.3 37.9
08:10 1025 30.27 854 25.22 9.6 49.3 71 4.7 40.4
08:15 1025 30.27 854 25.22 8.2 46.8 73 3.8 38.8
08:20 1025 30.27 854 25.22 8.3 46.9 70 3.2 37.8
08:25 1025 30.27 854 25.22 9.1 48.3 67 3.2 37.7
08:30 1025 30.27 854 25.22 9.8 49.7 66 3.7 38.7
08:35 1024 30.24 854 25.22 10.4 50.7 63 3.6 38.5
08:40 1024 30.24 854 25.22 10.4 50.7 61 3.2 37.8
08:45 1024 30.24 854 25.22 9.7 49.4 63 3 37.3
08:50 1024 30.24 854 25.22 9.9 49.7 60 2.4 36.4
08:55 1024 30.24 854 25.22 10.4 50.8 61 3.2 37.7
09:00 1024 30.24 854 25.22 10.4 50.7 58 2.6 36.6
09:05 1024 30.24 854 25.22 10.5 51 57 2.5 36.5
09:10 1024 30.24 854 25.22 11.2 52.1 57 3.1 37.7
09:15 1024 30.24 854 25.22 11.1 52.1 58 3.2 37.8
09:20 1024 30.24 854 25.22 11.2 52.1 58 3.1 37.7
09:25 1025 30.27 854 25.22 11.2 52.2 56 2.8 37.1
09:30 1024 30.24 854 25.22 12 53.5 54 2.9 37.3
09:35 1025 30.27 854 25.22 12.2 54 57 4.1 39.4
09:40 1025 30.27 854 25.22 12 53.5 57 3.8 38.8
09:45 1025 30.27 854 25.22 11.8 53.2 57 3.5 38.4
09:50 1024 30.24 854 25.22 11.9 53.5 55 3.1 37.7
09:55 1024 30.24 854 25.22 12.8 55.1 52 3.3 37.9
10:00 1024 30.24 854 25.22 12.9 55.2 53 3.6 38.5
10:05 1024 30.24 854 25.22 13.6 56.5 50 3.5 38.3
10:10 1024 30.24 854 25.22 13.2 55.7 55 4.4 39.9
10:15 1024 30.24 854 25.22 13 55.5 55 4.2 39.5
10:20 1024 30.24 854 25.22 13.2 55.8 51 3.3 37.9
10:25 1024 30.24 853 25.19 13.5 56.4 52 3.8 38.9
10:30 1024 30.24 853 25.19 13.1 55.5 55 4.2 39.6
10:35 1024 30.24 853 25.19 13.5 56.3 50 3.4 38.2
10:40 1024 30.24 853 25.19 13.8 56.9 53 4.4 39.9
10:45 1024 30.24 853 25.19 12.9 55.2 53 3.7 38.7
10:50 1024 30.24 853 25.19 13.3 55.9 50 3.3 37.9
10:55 1024 30.24 853 25.19 13.8 56.9 49 3.4 38.2
11:00 1024 30.24 853 25.19 14.1 57.4 51 4.4 39.8
11:05 1024 30.24 853 25.19 13.2 55.7 53 4 39.2
11:10 1024 30.24 853 25.19 13.7 56.6 50 3.5 38.4
11:15 1024 30.24 853 25.19 13.8 56.8 51 3.8 38.8
11:20 1024 30.24 853 25.19 14.4 57.9 48 3.6 38.4
11:25 1024 30.24 853 25.19 14.4 57.9 49 4 39.1
11:30 1024 30.24 853 25.19 14.7 58.5 47 3.6 38.5
11:35 1024 30.24 853 25.19 15.2 59.3 46 3.8 38.9
11:40 1024 30.24 853 25.19 15.4 59.7 48 4.4 39.9
11:45 1024 30.24 853 25.19 14.5 58.2 47 3.5 38.2
11:50 1024 30.24 853 25.19 15 59 46 3.5 38.3
11:55 1024 30.24 853 25.19 15.8 60.4 44 3.6 38.5
12:00 1024 30.24 853 25.19 15.4 59.7 45 3.6 38.5
12:05 1023 30.21 853 25.19 15.8 60.5 44 3.6 38.5
12:10 1024 30.24 853 25.19 16 60.8 44 3.9 39.1
12:15 1023 30.21 853 25.19 15.5 59.9 44 3.4 38.1
12:20 1023 30.21 853 25.19 15.8 60.4 44 3.7 38.6
12:25 1023 30.21 853 25.19 16.3 61.3 42 3.6 38.4
12:30 1023 30.21 853 25.19 16.7 62.1 43 4.1 39.3
12:35 1023 30.21 853 25.19 16.6 61.8 42 3.8 38.8
12:40 1023 30.21 852 25.16 15.9 60.6 45 4 39.2
12:45 1023 30.21 852 25.16 14.6 58.3 49 4 39.3
12:50 1023 30.21 852 25.16 14.5 58.2 49 4.1 39.3
12:55 1023 30.21 852 25.16 15.5 60 47 4.2 39.6
13:00 1023 30.21 852 25.16 15.1 59.2 49 4.6 40.2
13:05 1023 30.21 852 25.16 14.1 57.3 49 3.6 38.5
13:10 1023 30.21 852 25.16 15.5 59.8 45 3.6 38.4
13:15 1023 30.21 852 25.16 15.7 60.3 45 3.8 38.8
13:20 1023 30.21 852 25.16 16.4 61.5 43 3.9 38.9
13:25 1023 30.21 852 25.16 16.8 62.2 43 4.2 39.5
13:30 1023 30.21 852 25.16 17.5 63.5 42 4.5 40.1
13:35 1023 30.21 852 25.16 16.6 61.8 46 5 41.1
13:40 1023 30.21 852 25.16 16.4 61.5 45 4.6 40.3
13:45 1023 30.21 852 25.16 16 60.8 44 4 39.2
13:50 1023 30.21 852 25.16 15.9 60.7 43 3.6 38.4
13:55 1023 30.21 852 25.16 16.3 61.3 44 4 39.2
14:00 1023 30.21 852 25.16 16.7 62 44 4.3 39.8
14:05 1023 30.21 852 25.16 16.4 61.5 44 4.2 39.5
14:10 1023 30.21 852 25.16 16.6 61.8 42 3.9 39
14:15 1023 30.21 852 25.16 17.8 64.1 40 4.3 39.7
14:20 1023 30.21 852 25.16 17.9 64.1 41 4.5 40.2
14:25 1023 30.21 852 25.16 17.5 63.6 42 4.6 40.3
14:30 1023 30.21 852 25.16 16.8 62.2 44 4.4 40
14:35 1022 30.18 852 25.16 17.7 63.8 39 3.8 38.8
14:40 1022 30.18 852 25.16 17.8 64 41 4.5 40.2
14:45 1022 30.18 852 25.16 18.5 65.4 39 4.4 39.8
14:50 1022 30.18 851 25.13 18.1 64.5 38 3.7 38.6
14:55 1022 30.18 851 25.13 17.6 63.6 41 4.3 39.8
15:00 1022 30.18 851 25.13 17.4 63.3 40 3.9 38.9
15:05 1022 30.18 851 25.13 17.8 64 39 3.8 38.8
15:10 1022 30.18 851 25.13 18.5 65.3 37 3.9 38.9
15:15 1022 30.18 851 25.13 18.9 66.1 39 4.7 40.5
15:20 1022 30.18 851 25.13 17.5 63.5 41 4.2 39.6
15:25 1022 30.18 851 25.13 17.3 63.2 42 4.5 40.2
15:30 1022 30.18 851 25.13 17.3 63.2 43 4.7 40.4
15:35 1022 30.18 851 25.13 17.2 62.9 44 4.9 40.8
15:40 1022 30.18 851 25.13 17.3 63.1 43 4.6 40.3
15:45 1022 30.18 851 25.13 18.4 65.1 40 4.7 40.4
15:50 1022 30.18 851 25.13 17.9 64.3 43 5.4 41.7
15:55 1022 30.18 851 25.13 18.7 65.6 39 4.7 40.4
16:00 1022 30.18 851 25.13 19.7 67.5 37 4.6 40.3
16:05 1022 30.18 851 25.13 19.6 67.2 37 4.8 40.6
16:10 1022 30.18 851 25.13 19.5 67.2 39 5.2 41.4
16:15 1022 30.18 851 25.13 19.1 66.3 39 5.1 41.1
16:20 1022 30.18 851 25.13 19.1 66.3 38 4.4 39.9
16:25 1022 30.18 851 25.13 19.9 67.8 36 4.7 40.4
16:30 1022 30.18 851 25.13 20.2 68.3 35 4.6 40.2
16:35 1022 30.18 851 25.13 20.3 68.5 35 4.6 40.3
16:40 1022 30.18 851 25.13 20.4 68.6 35 4.6 40.2
16:45 1022 30.18 851 25.13 18.9 66.1 38 4.5 40.1
16:50 1022 30.18 851 25.13 18.6 65.5 39 4.7 40.4
16:55 1022 30.18 851 25.13 19.6 67.3 37 4.5 40.2
17:00 1022 30.18 851 25.13 19.8 67.7 38 5.2 41.4
17:05 1022 30.18 851 25.13 20.3 68.5 36 5 40.9
17:10 1022 30.18 851 25.13 20.8 69.4 35 5 41
17:15 1022 30.18 851 25.13 20.5 68.9 37 5.3 41.5
17:20 1022 30.18 851 25.13 20.7 69.3 34 4.4 39.9
17:25 1021 30.15 851 25.13 20.1 68.1 36 4.7 40.4
17:30 1021 30.15 851 25.13 19.7 67.4 36 4.3 39.8
17:35 1021 30.15 851 25.13 19 66.3 33 2.7 36.9
17:40 1021 30.15 851 25.13 19.3 66.7 34 3.1 37.6
17:45 1021 30.15 851 25.13 19.3 66.8 33 2.9 37.2
17:50 1021 30.15 850 25.1 18.9 66.1 34 3 37.5
17:55 1021 30.15 850 25.1 18.9 66 33 2.4 36.3
18:00 1021 30.15 850 25.1 19.5 67.1 32 2.3 36.2
18:05 1021 30.15 850 25.1 19.8 67.6 33 3.1 37.5
18:10 1021 30.15 850 25.1 19.2 66.6 34 3 37.4
18:15 1021 30.15 850 25.1 19 66.2 33 2.4 36.3
18:20 1021 30.15 850 25.1 19.7 67.5 33 3.1 37.6
18:25 1021 30.15 850 25.1 19.5 67 34 3.2 37.7
18:30 1021 30.15 850 25.1 19.2 66.6 33 2.7 36.9
18:35 1021 30.15 850 25.1 18.7 65.6 34 2.8 37
18:40 1021 30.15 850 25.1 18.4 65.1 34 2.3 36.2
18:45 1021 30.15 850 25.1 18.2 64.8 37 3.6 38.5
18:50 1021 30.15 850 25.1 18.6 65.5 35 2.8 37.1
18:55 1021 30.15 850 25.1 18.6 65.5 34 2.4 36.3
19:00 1021 30.15 850 25.1 18.3 64.9 34 2.4 36.3
19:05 1021 30.15 850 25.1 18.3 64.9 34 2.2 36
19:10 1021 30.15 850 25.1 18.1 64.7 34 2.2 36
19:15 1021 30.15 850 25.1 18.1 64.6 35 2.7 36.9
19:20 1021 30.15 850 25.1 18.1 64.7 35 2.6 36.6
19:25 1021 30.15 850 25.1 18.3 64.9 34 2.4 36.4
19:30 1021 30.15 850 25.1 18.2 64.8 39 4.2 39.6
19:35 1021 30.15 850 25.1 17.9 64.2 37 3.1 37.6
19:40 1021 30.15 850 25.1 17.8 64 37 3.2 37.7
19:45 1021 30.15 850 25.1 17.6 63.6 37 3 37.4
19:50 1021 30.15 850 25.1 17.4 63.4 37 2.6 36.7
19:55 1021 30.15 850 25.1 17.4 63.2 37 2.8 37
20:00 1021 30.15 850 25.1 17.4 63.3 38 2.9 37.2
20:05 1021 30.15 850 25.1 17.2 63 38 3 37.5
20:10 1021 30.15 850 25.1 17 62.5 40 3.4 38
20:15 1021 30.15 850 25.1 16.8 62.3 40 3.2 37.7
20:20 1021 30.15 850 25.1 16.7 62.1 41 3.4 38.1
20:25 1021 30.15 850 25.1 16.7 62 42 3.6 38.5
20:30 1021 30.15 850 25.1 16.5 61.8 43 4 39.2
20:35 1021 30.15 850 25.1 16.4 61.5 44 4.1 39.3
20:40 1021 30.15 850 25.1 16.1 61 44 4 39.3
20:45 1021 30.15 850 25.1 15.8 60.5 45 4 39.2
20:50 1021 30.15 850 25.1 15.6 60.1 45 3.9 39.1
20:55 1021 30.15 850 25.1 15.4 59.7 46 3.9 38.9
21:00 1021 30.15 850 25.1 15.3 59.5 46 3.7 38.7
21:05 1021 30.15 850 25.1 15.1 59.2 47 3.9 39
21:10 1021 30.15 850 25.1 15 59 47 3.8 38.8
21:15 1021 30.15 850 25.1 14.8 58.7 47 3.8 38.9
21:20 1021 30.15 850 25.1 14.7 58.5 47 3.7 38.7
21:25 1021 30.15 850 25.1 14.6 58.2 48 3.8 38.9
21:30 1021 30.15 850 25.1 14.4 58 49 3.9 39.1
21:35 1021 30.15 850 25.1 14.2 57.6 50 4.1 39.3
21:40 1021 30.15 850 25.1 13.9 57.1 51 4 39.2
21:45 1021 30.15 850 25.1 13.8 56.9 52 4.1 39.4
21:50 1021 30.15 850 25.1 13.6 56.4 53 4.1 39.4
21:55 1021 30.15 850 25.1 13.5 56.2 53 4.1 39.4
22:00 1021 30.15 850 25.1 13.3 55.9 54 4.3 39.8
22:05 1021 30.15 850 25.1 13 55.4 55 4.2 39.6
22:10 1021 30.15 850 25.1 13 55.4 54 4.1 39.3
22:15 1021 30.15 850 25.1 13 55.4 53 3.8 38.8
22:20 1021 30.15 850 25.1 13.1 55.6 53 3.8 38.8
22:25 1021 30.15 850 25.1 13.1 55.5 53 3.8 38.9
22:30 1021 30.15 850 25.1 12.9 55.3 54 3.9 39.1
22:35 1021 30.15 850 25.1 12.4 54.3 62 5.3 41.6
22:40 1021 30.15 850 25.1 11.3 52.3 63 4.5 40.2
22:45 1021 30.15 850 25.1 11.2 52.1 64 4.6 40.2
22:50 1021 30.15 850 25.1 11.1 51.9 64 4.5 40.1
22:55 1021 30.15 850 25.1 11 51.9 63 4.4 39.9
23:00 1021 30.15 850 25.1 10.9 51.5 64 4.3 39.7
23:05 1021 30.15 850 25.1 10.8 51.5 63 4.1 39.4
23:10 1021 30.15 850 25.1 11 51.9 63 4.2 39.6
23:15 1021 30.15 850 25.1 11 51.7 64 4.4 40
23:20 1021 30.15 850 25.1 10.7 51.2 65 4.4 39.9
23:25 1021 30.15 850 25.1 10.7 51.2 65 4.5 40
23:30 1021 30.15 850 25.1 10.3 50.5 67 4.4 39.9
23:35 1021 30.15 850 25.1 10.1 50.2 67 4.2 39.6
23:40 1021 30.15 850 25.1 10.2 50.4 66 4.3 39.7
23:45 1021 30.15 850 25.1 10.4 50.8 66 4.5 40
23:50 1021 30.15 850 25.1 10.7 51.2 66 4.5 40.1
23:55 1021 30.15 850 25.1 10.8 51.4 66 4.8 40.6
24:00 1021 30.15 850 25.1 10.6 51.1 67 4.8 40.6